Terminal Aerodrome Forecast
Issued by NWS

Home | Current Version | Previous Version | Text Only | Print | Product List | Glossary On
Versions: 1 2 3 4 5 6 7 8 9 10 11 12 13 14 15 16
482
FTUS43 KPAH 281720
TAFCGI
TAF
KCGI 281720Z 2818/2918 35012KT P6SM SCT040
     FM290100 32004KT P6SM SKC
     FM291500 33012G18KT P6SM SCT025=

USA.gov is the U.S. government's official web portal to all federal, state and local government web resources and services.